sensor_id;sensor_type;location;lat;lon;timestamp;temperature;humidity
40538;DHT22;27925;41.874;12.526;2023-04-24T00:00:42;17.60;74.80
40538;DHT22;27925;41.874;12.526;2023-04-24T00:03:10;17.50;74.50
40538;DHT22;27925;41.874;12.526;2023-04-24T00:05:36;17.50;74.50
40538;DHT22;27925;41.874;12.526;2023-04-24T00:08:02;17.50;74.10
40538;DHT22;27925;41.874;12.526;2023-04-24T00:10:27;17.50;73.80
40538;DHT22;27925;41.874;12.526;2023-04-24T00:12:53;17.50;73.70
40538;DHT22;27925;41.874;12.526;2023-04-24T00:15:19;17.50;73.40
40538;DHT22;27925;41.874;12.526;2023-04-24T00:17:44;17.50;73.30
40538;DHT22;27925;41.874;12.526;2023-04-24T00:20:10;17.40;73.00
40538;DHT22;27925;41.874;12.526;2023-04-24T00:22:36;17.40;73.00
40538;DHT22;27925;41.874;12.526;2023-04-24T00:25:02;17.40;72.70
40538;DHT22;27925;41.874;12.526;2023-04-24T00:27:27;17.40;72.80
40538;DHT22;27925;41.874;12.526;2023-04-24T00:29:53;17.40;72.40
40538;DHT22;27925;41.874;12.526;2023-04-24T00:32:19;17.30;72.40
40538;DHT22;27925;41.874;12.526;2023-04-24T00:34:44;17.30;72.20
40538;DHT22;27925;41.874;12.526;2023-04-24T00:37:10;17.30;72.20
40538;DHT22;27925;41.874;12.526;2023-04-24T00:39:37;17.30;72.30
40538;DHT22;27925;41.874;12.526;2023-04-24T00:42:02;17.30;71.90
40538;DHT22;27925;41.874;12.526;2023-04-24T00:44:28;17.20;71.90
40538;DHT22;27925;41.874;12.526;2023-04-24T00:46:55;17.20;71.90
40538;DHT22;27925;41.874;12.526;2023-04-24T00:49:21;17.20;71.70
40538;DHT22;27925;41.874;12.526;2023-04-24T00:51:47;17.20;71.60
40538;DHT22;27925;41.874;12.526;2023-04-24T00:54:15;17.20;71.60
40538;DHT22;27925;41.874;12.526;2023-04-24T00:56:42;17.20;71.60
40538;DHT22;27925;41.874;12.526;2023-04-24T00:59:08;17.20;71.30
40538;DHT22;27925;41.874;12.526;2023-04-24T01:01:34;17.20;71.40
40538;DHT22;27925;41.874;12.526;2023-04-24T01:04:00;17.20;71.30
40538;DHT22;27925;41.874;12.526;2023-04-24T01:06:28;17.20;71.40
40538;DHT22;27925;41.874;12.526;2023-04-24T01:08:57;17.20;71.10
40538;DHT22;27925;41.874;12.526;2023-04-24T01:11:22;17.10;71.10
40538;DHT22;27925;41.874;12.526;2023-04-24T01:13:48;17.20;71.30
40538;DHT22;27925;41.874;12.526;2023-04-24T01:16:14;17.10;71.00
40538;DHT22;27925;41.874;12.526;2023-04-24T01:18:43;17.10;71.00
40538;DHT22;27925;41.874;12.526;2023-04-24T01:21:09;17.10;70.90
40538;DHT22;27925;41.874;12.526;2023-04-24T01:23:35;17.20;71.00
40538;DHT22;27925;41.874;12.526;2023-04-24T01:26:01;17.20;71.00
40538;DHT22;27925;41.874;12.526;2023-04-24T01:28:27;17.20;71.10
40538;DHT22;27925;41.874;12.526;2023-04-24T01:30:53;17.20;71.00
40538;DHT22;27925;41.874;12.526;2023-04-24T01:33:21;17.30;71.00
40538;DHT22;27925;41.874;12.526;2023-04-24T01:35:47;17.30;70.90
40538;DHT22;27925;41.874;12.526;2023-04-24T01:38:14;17.40;70.60
40538;DHT22;27925;41.874;12.526;2023-04-24T01:40:40;17.40;70.80
40538;DHT22;27925;41.874;12.526;2023-04-24T01:43:05;17.40;70.80
40538;DHT22;27925;41.874;12.526;2023-04-24T01:45:31;17.40;71.60
40538;DHT22;27925;41.874;12.526;2023-04-24T01:47:57;17.40;70.60
40538;DHT22;27925;41.874;12.526;2023-04-24T01:50:23;17.40;70.70
40538;DHT22;27925;41.874;12.526;2023-04-24T01:52:49;17.40;70.70
40538;DHT22;27925;41.874;12.526;2023-04-24T01:55:14;17.40;70.90
40538;DHT22;27925;41.874;12.526;2023-04-24T01:57:40;17.40;70.90
40538;DHT22;27925;41.874;12.526;2023-04-24T02:00:07;17.40;71.00
40538;DHT22;27925;41.874;12.526;2023-04-24T02:02:33;17.40;70.90
40538;DHT22;27925;41.874;12.526;2023-04-24T02:04:59;17.40;70.70
40538;DHT22;27925;41.874;12.526;2023-04-24T02:07:24;17.40;70.40
40538;DHT22;27925;41.874;12.526;2023-04-24T02:09:50;17.40;70.50
40538;DHT22;27925;41.874;12.526;2023-04-24T02:12:16;17.50;70.60
40538;DHT22;27925;41.874;12.526;2023-04-24T02:14:43;17.50;70.60
40538;DHT22;27925;41.874;12.526;2023-04-24T02:17:09;17.50;70.20
40538;DHT22;27925;41.874;12.526;2023-04-24T02:19:35;17.50;70.30
40538;DHT22;27925;41.874;12.526;2023-04-24T02:22:00;17.50;70.40
40538;DHT22;27925;41.874;12.526;2023-04-24T02:24:26;17.50;70.50
40538;DHT22;27925;41.874;12.526;2023-04-24T02:26:52;17.50;70.40
40538;DHT22;27925;41.874;12.526;2023-04-24T02:29:17;17.50;70.70
40538;DHT22;27925;41.874;12.526;2023-04-24T02:31:43;17.50;70.60
40538;DHT22;27925;41.874;12.526;2023-04-24T02:34:09;17.50;70.70
40538;DHT22;27925;41.874;12.526;2023-04-24T02:36:35;17.50;70.80
40538;DHT22;27925;41.874;12.526;2023-04-24T02:39:00;17.50;71.00
40538;DHT22;27925;41.874;12.526;2023-04-24T02:41:27;17.50;70.90
40538;DHT22;27925;41.874;12.526;2023-04-24T02:43:58;17.50;71.90
40538;DHT22;27925;41.874;12.526;2023-04-24T02:46:24;17.50;71.30
40538;DHT22;27925;41.874;12.526;2023-04-24T02:48:50;17.50;71.30
40538;DHT22;27925;41.874;12.526;2023-04-24T02:51:16;17.50;71.50
40538;DHT22;27925;41.874;12.526;2023-04-24T02:53:41;17.50;71.60
40538;DHT22;27925;41.874;12.526;2023-04-24T02:56:07;17.50;71.80
40538;DHT22;27925;41.874;12.526;2023-04-24T02:58:33;17.50;71.80
40538;DHT22;27925;41.874;12.526;2023-04-24T03:00:59;17.50;71.70
40538;DHT22;27925;41.874;12.526;2023-04-24T03:03:25;17.50;72.10
40538;DHT22;27925;41.874;12.526;2023-04-24T03:05:51;17.50;72.00
40538;DHT22;27925;41.874;12.526;2023-04-24T03:08:17;17.50;72.20
40538;DHT22;27925;41.874;12.526;2023-04-24T03:10:43;17.50;72.10
40538;DHT22;27925;41.874;12.526;2023-04-24T03:13:08;17.50;72.30
40538;DHT22;27925;41.874;12.526;2023-04-24T03:15:34;17.50;72.30
40538;DHT22;27925;41.874;12.526;2023-04-24T03:18:00;17.50;72.50
40538;DHT22;27925;41.874;12.526;2023-04-24T03:20:26;17.50;72.60
40538;DHT22;27925;41.874;12.526;2023-04-24T03:22:52;17.50;72.60
40538;DHT22;27925;41.874;12.526;2023-04-24T03:25:18;17.50;73.00
40538;DHT22;27925;41.874;12.526;2023-04-24T21:27:52;17.10;84.00
40538;DHT22;27925;41.874;12.526;2023-04-24T21:30:18;17.00;84.20
40538;DHT22;27925;41.874;12.526;2023-04-24T21:32:45;17.00;84.60
40538;DHT22;27925;41.874;12.526;2023-04-24T21:35:10;17.00;84.30
40538;DHT22;27925;41.874;12.526;2023-04-24T21:37:36;16.90;84.50
40538;DHT22;27925;41.874;12.526;2023-04-24T21:40:04;16.90;84.70
40538;DHT22;27925;41.874;12.526;2023-04-24T21:42:29;16.90;85.00
40538;DHT22;27925;41.874;12.526;2023-04-24T21:44:55;16.90;84.90
40538;DHT22;27925;41.874;12.526;2023-04-24T21:47:21;16.90;85.10
40538;DHT22;27925;41.874;12.526;2023-04-24T21:49:47;16.90;85.30
40538;DHT22;27925;41.874;12.526;2023-04-24T21:52:12;16.90;85.40
40538;DHT22;27925;41.874;12.526;2023-04-24T21:54:38;17.00;85.50
40538;DHT22;27925;41.874;12.526;2023-04-24T21:57:04;17.00;85.80
40538;DHT22;27925;41.874;12.526;2023-04-24T21:59:30;16.90;85.70
40538;DHT22;27925;41.874;12.526;2023-04-24T22:01:56;16.90;85.80
40538;DHT22;27925;41.874;12.526;2023-04-24T22:04:21;16.80;86.00
40538;DHT22;27925;41.874;12.526;2023-04-24T22:06:47;16.90;86.10
40538;DHT22;27925;41.874;12.526;2023-04-24T22:09:13;16.80;86.20
40538;DHT22;27925;41.874;12.526;2023-04-24T22:11:38;16.80;86.30
40538;DHT22;27925;41.874;12.526;2023-04-24T22:14:06;16.80;86.30
40538;DHT22;27925;41.874;12.526;2023-04-24T22:16:31;16.80;86.50
40538;DHT22;27925;41.874;12.526;2023-04-24T22:18:58;16.70;86.60
40538;DHT22;27925;41.874;12.526;2023-04-24T22:21:24;16.70;87.00
40538;DHT22;27925;41.874;12.526;2023-04-24T22:23:50;16.70;87.00
40538;DHT22;27925;41.874;12.526;2023-04-24T22:26:16;16.80;87.30
40538;DHT22;27925;41.874;12.526;2023-04-24T22:28:42;16.80;87.40
40538;DHT22;27925;41.874;12.526;2023-04-24T22:31:07;16.80;87.30
40538;DHT22;27925;41.874;12.526;2023-04-24T22:33:33;16.80;87.30
40538;DHT22;27925;41.874;12.526;2023-04-24T22:35:59;16.80;87.40
40538;DHT22;27925;41.874;12.526;2023-04-24T22:38:25;16.80;87.50
40538;DHT22;27925;41.874;12.526;2023-04-24T22:40:51;16.90;87.70
40538;DHT22;27925;41.874;12.526;2023-04-24T22:43:18;16.80;87.50
40538;DHT22;27925;41.874;12.526;2023-04-24T22:45:43;16.80;87.30
40538;DHT22;27925;41.874;12.526;2023-04-24T22:48:09;16.80;87.70
40538;DHT22;27925;41.874;12.526;2023-04-24T22:50:35;16.80;87.70
40538;DHT22;27925;41.874;12.526;2023-04-24T22:53:01;16.80;87.70
40538;DHT22;27925;41.874;12.526;2023-04-24T22:55:27;16.70;87.80
40538;DHT22;27925;41.874;12.526;2023-04-24T22:57:53;16.70;87.80
40538;DHT22;27925;41.874;12.526;2023-04-24T23:00:18;16.70;88.00
40538;DHT22;27925;41.874;12.526;2023-04-24T23:02:45;16.60;87.90
40538;DHT22;27925;41.874;12.526;2023-04-24T23:05:11;16.60;88.20
40538;DHT22;27925;41.874;12.526;2023-04-24T23:07:37;16.60;88.40
40538;DHT22;27925;41.874;12.526;2023-04-24T23:10:04;16.50;88.40
40538;DHT22;27925;41.874;12.526;2023-04-24T23:12:30;16.50;88.50
40538;DHT22;27925;41.874;12.526;2023-04-24T23:14:56;16.50;88.50
40538;DHT22;27925;41.874;12.526;2023-04-24T23:17:22;16.40;88.40
40538;DHT22;27925;41.874;12.526;2023-04-24T23:19:47;16.40;88.60
40538;DHT22;27925;41.874;12.526;2023-04-24T23:22:13;16.40;88.50
40538;DHT22;27925;41.874;12.526;2023-04-24T23:24:39;16.40;88.10
40538;DHT22;27925;41.874;12.526;2023-04-24T23:27:05;16.40;88.30
40538;DHT22;27925;41.874;12.526;2023-04-24T23:29:30;16.30;88.20
40538;DHT22;27925;41.874;12.526;2023-04-24T23:31:57;16.30;88.30
40538;DHT22;27925;41.874;12.526;2023-04-24T23:34:22;16.30;88.10
40538;DHT22;27925;41.874;12.526;2023-04-24T23:36:48;16.40;88.00
40538;DHT22;27925;41.874;12.526;2023-04-24T23:39:16;16.40;87.80
40538;DHT22;27925;41.874;12.526;2023-04-24T23:41:41;16.40;87.70
40538;DHT22;27925;41.874;12.526;2023-04-24T23:44:11;16.30;87.40
40538;DHT22;27925;41.874;12.526;2023-04-24T23:46:37;16.30;88.10
40538;DHT22;27925;41.874;12.526;2023-04-24T23:49:03;16.20;87.50
40538;DHT22;27925;41.874;12.526;2023-04-24T23:51:29;16.20;87.70
40538;DHT22;27925;41.874;12.526;2023-04-24T23:53:56;16.20;87.70
40538;DHT22;27925;41.874;12.526;2023-04-24T23:56:22;16.20;87.80
40538;DHT22;27925;41.874;12.526;2023-04-24T23:58:54;16.20;88.10
